sensor_id;sensor_type;location;lat;lon;timestamp;pressure;altitude;pressure_sealevel;temperature;humidity
69796;BME280;57073;45.650;9.612;2023-05-23T00:02:11;98991.78;;;18.91;52.15
69796;BME280;57073;45.650;9.612;2023-05-23T00:07:12;98989.41;;;18.84;52.08
69796;BME280;57073;45.650;9.612;2023-05-23T00:12:12;98983.75;;;18.80;51.71
69796;BME280;57073;45.650;9.612;2023-05-23T00:17:13;98979.69;;;18.78;52.04
69796;BME280;57073;45.650;9.612;2023-05-23T00:22:13;98974.25;;;18.78;52.56
69796;BME280;57073;45.650;9.612;2023-05-23T00:27:15;98973.44;;;18.77;52.33
69796;BME280;57073;45.650;9.612;2023-05-23T00:32:16;98978.25;;;18.67;53.55
69796;BME280;57073;45.650;9.612;2023-05-23T00:37:16;98966.50;;;18.66;52.68
69796;BME280;57073;45.650;9.612;2023-05-23T00:42:17;98962.63;;;18.53;52.65
69796;BME280;57073;45.650;9.612;2023-05-23T00:47:17;98976.69;;;18.60;52.70
69796;BME280;57073;45.650;9.612;2023-05-23T00:52:18;98967.09;;;18.44;52.51
69796;BME280;57073;45.650;9.612;2023-05-23T00:57:18;98967.09;;;18.44;52.87
69796;BME280;57073;45.650;9.612;2023-05-23T01:02:20;98962.91;;;18.33;52.66
69796;BME280;57073;45.650;9.612;2023-05-23T01:07:20;98957.66;;;18.17;53.07
69796;BME280;57073;45.650;9.612;2023-05-23T01:12:36;98964.63;;;18.29;52.99
69796;BME280;57073;45.650;9.612;2023-05-23T01:17:55;98964.19;;;18.21;52.56
69796;BME280;57073;45.650;9.612;2023-05-23T01:28:04;98961.81;;;18.15;53.44
69796;BME280;57073;45.650;9.612;2023-05-23T01:33:07;98961.00;;;18.14;52.94
69796;BME280;57073;45.650;9.612;2023-05-23T01:38:08;98959.44;;;18.08;53.49
69796;BME280;57073;45.650;9.612;2023-05-23T01:43:09;98947.06;;;18.16;53.24
69796;BME280;57073;45.650;9.612;2023-05-23T01:48:11;98943.59;;;18.10;53.69
69796;BME280;57073;45.650;9.612;2023-05-23T01:53:14;98941.41;;;18.12;53.43
69796;BME280;57073;45.650;9.612;2023-05-23T01:58:16;98939.25;;;18.09;52.77
69796;BME280;57073;45.650;9.612;2023-05-23T02:03:17;98941.09;;;17.95;53.31
69796;BME280;57073;45.650;9.612;2023-05-23T02:08:17;98946.53;;;17.95;54.24
69796;BME280;57073;45.650;9.612;2023-05-23T02:13:17;98944.47;;;17.86;54.46
69796;BME280;57073;45.650;9.612;2023-05-23T02:18:19;98949.91;;;17.86;55.27
69796;BME280;57073;45.650;9.612;2023-05-23T02:23:19;98948.38;;;17.80;54.75
69796;BME280;57073;45.650;9.612;2023-05-23T02:28:19;98947.28;;;17.81;54.80
69796;BME280;57073;45.650;9.612;2023-05-23T02:33:20;98949.91;;;17.86;54.49
69796;BME280;57073;45.650;9.612;2023-05-23T02:38:20;98950.72;;;17.68;55.49
69796;BME280;57073;45.650;9.612;2023-05-23T02:43:21;98954.88;;;17.60;55.79
69796;BME280;57073;45.650;9.612;2023-05-23T02:48:21;98955.50;;;17.52;56.57
69796;BME280;57073;45.650;9.612;2023-05-23T02:53:21;98956.28;;;17.58;55.61
69796;BME280;57073;45.650;9.612;2023-05-23T02:58:22;98954.69;;;17.52;56.64
69796;BME280;57073;45.650;9.612;2023-05-23T03:08:23;98962.25;;;17.60;54.95
69796;BME280;57073;45.650;9.612;2023-05-23T03:13:24;98958.38;;;17.42;55.93
69796;BME280;57073;45.650;9.612;2023-05-23T03:18:24;98966.25;;;17.43;56.14
69796;BME280;57073;45.650;9.612;2023-05-23T03:23:24;98955.94;;;17.40;56.04
69796;BME280;57073;45.650;9.612;2023-05-23T03:28:25;98954.94;;;17.31;55.71
69796;BME280;57073;45.650;9.612;2023-05-23T03:33:25;98959.88;;;17.29;55.04
69796;BME280;57073;45.650;9.612;2023-05-23T03:38:26;98964.34;;;17.20;55.51
69796;BME280;57073;45.650;9.612;2023-05-23T03:43:26;98959.47;;;17.17;54.91
69796;BME280;57073;45.650;9.612;2023-05-23T03:48:27;98953.22;;;17.16;54.98
69796;BME280;57073;45.650;9.612;2023-05-23T03:53:29;98961.06;;;17.18;55.74
69796;BME280;57073;45.650;9.612;2023-05-23T03:58:29;98959.47;;;17.17;56.16
69796;BME280;57073;45.650;9.612;2023-05-23T04:03:30;98975.56;;;17.37;54.65
69796;BME280;57073;45.650;9.612;2023-05-23T04:08:33;98969.59;;;17.59;54.07
69796;BME280;57073;45.650;9.612;2023-05-23T04:13:34;98959.44;;;17.89;53.66
69796;BME280;57073;45.650;9.612;2023-05-23T04:18:34;98960.03;;;18.24;52.81
69796;BME280;57073;45.650;9.612;2023-05-23T04:23:38;98959.38;;;18.51;51.29
69796;BME280;57073;45.650;9.612;2023-05-23T04:28:38;98959.50;;;18.93;51.02
69796;BME280;57073;45.650;9.612;2023-05-23T04:33:39;98960.59;;;19.38;50.12
69796;BME280;57073;45.650;9.612;2023-05-23T04:38:39;98975.19;;;19.75;48.63
69796;BME280;57073;45.650;9.612;2023-05-23T04:43:40;98978.94;;;20.30;47.82
69796;BME280;57073;45.650;9.612;2023-05-23T04:48:41;98982.06;;;20.60;46.74
69796;BME280;57073;45.650;9.612;2023-05-23T04:53:43;98993.59;;;21.24;46.10
69796;BME280;57073;45.650;9.612;2023-05-23T04:58:44;98992.88;;;21.81;44.83
69796;BME280;57073;45.650;9.612;2023-05-23T05:03:45;98988.19;;;21.91;44.12
69796;BME280;57073;45.650;9.612;2023-05-23T05:08:46;98982.72;;;21.99;43.09
69796;BME280;57073;45.650;9.612;2023-05-23T05:13:46;98982.16;;;22.55;43.35
69796;BME280;57073;45.650;9.612;2023-05-23T05:18:47;98990.34;;;22.90;42.42
69796;BME280;57073;45.650;9.612;2023-05-23T05:23:47;98985.09;;;23.23;41.25
69796;BME280;57073;45.650;9.612;2023-05-23T05:28:47;98987.53;;;23.25;41.33
69796;BME280;57073;45.650;9.612;2023-05-23T05:33:48;98986.50;;;23.76;40.94
69796;BME280;57073;45.650;9.612;2023-05-23T05:38:49;98984.13;;;23.96;40.65
69796;BME280;57073;45.650;9.612;2023-05-23T05:43:49;98979.78;;;24.16;39.63
69796;BME280;57073;45.650;9.612;2023-05-23T05:48:49;98978.16;;;24.57;39.29
69796;BME280;57073;45.650;9.612;2023-05-23T05:53:50;98973.84;;;24.68;39.34
69796;BME280;57073;45.650;9.612;2023-05-23T05:58:50;98976.06;;;24.12;38.53
69796;BME280;57073;45.650;9.612;2023-05-23T06:03:50;98976.63;;;24.26;39.62
69796;BME280;57073;45.650;9.612;2023-05-23T06:08:51;98976.81;;;24.21;39.48
69796;BME280;57073;45.650;9.612;2023-05-23T06:13:52;98986.34;;;24.66;39.06
69796;BME280;57073;45.650;9.612;2023-05-23T06:18:52;98984.66;;;24.95;38.10
69796;BME280;57073;45.650;9.612;2023-05-23T06:23:52;98983.91;;;25.43;37.58
69796;BME280;57073;45.650;9.612;2023-05-23T06:28:53;98989.69;;;25.87;36.59
69796;BME280;57073;45.650;9.612;2023-05-23T06:33:53;98980.81;;;26.19;37.01
69796;BME280;57073;45.650;9.612;2023-05-23T06:38:53;98989.66;;;26.24;36.16
69796;BME280;57073;45.650;9.612;2023-05-23T06:43:54;98989.47;;;26.46;36.06
69796;BME280;57073;45.650;9.612;2023-05-23T06:48:54;98987.41;;;26.71;35.15
69796;BME280;57073;45.650;9.612;2023-05-23T06:53:54;98988.38;;;26.91;34.61
69796;BME280;57073;45.650;9.612;2023-05-23T06:58:58;98986.38;;;26.75;34.87
69796;BME280;57073;45.650;9.612;2023-05-23T07:03:58;98988.09;;;26.68;34.81
69796;BME280;57073;45.650;9.612;2023-05-23T07:08:58;98981.06;;;26.98;33.91
69796;BME280;57073;45.650;9.612;2023-05-23T07:13:59;98981.06;;;26.98;33.71
69796;BME280;57073;45.650;9.612;2023-05-23T07:19:00;98971.16;;;27.29;33.96
69796;BME280;57073;45.650;9.612;2023-05-23T07:24:00;98983.06;;;27.46;33.51
69796;BME280;57073;45.650;9.612;2023-05-23T07:29:01;98976.72;;;27.61;33.03
69796;BME280;57073;45.650;9.612;2023-05-23T07:34:01;98974.22;;;27.56;31.61
69796;BME280;57073;45.650;9.612;2023-05-23T07:39:02;98969.16;;;27.42;32.73
69796;BME280;57073;45.650;9.612;2023-05-23T07:44:03;98967.19;;;27.43;32.43
69796;BME280;57073;45.650;9.612;2023-05-23T07:49:03;98974.66;;;27.74;33.60
69796;BME280;57073;45.650;9.612;2023-05-23T07:54:04;98969.38;;;27.85;32.91
69796;BME280;57073;45.650;9.612;2023-05-23T07:59:04;98960.09;;;27.93;32.34
69796;BME280;57073;45.650;9.612;2023-05-23T08:04:04;98958.16;;;28.13;33.41
69796;BME280;57073;45.650;9.612;2023-05-23T08:09:05;98949.66;;;28.25;31.91
69796;BME280;57073;45.650;9.612;2023-05-23T08:14:06;98949.16;;;28.39;32.23
69796;BME280;57073;45.650;9.612;2023-05-23T08:19:06;98949.63;;;27.86;31.29
69796;BME280;57073;45.650;9.612;2023-05-23T08:24:06;98945.75;;;28.46;32.77
69796;BME280;57073;45.650;9.612;2023-05-23T08:29:07;98949.31;;;28.46;31.80
69796;BME280;57073;45.650;9.612;2023-05-23T08:34:09;98952.09;;;28.66;32.91
69796;BME280;57073;45.650;9.612;2023-05-23T08:39:10;98956.75;;;28.81;32.09
69796;BME280;57073;45.650;9.612;2023-05-23T08:44:11;98960.34;;;28.82;33.48
69796;BME280;57073;45.650;9.612;2023-05-23T08:49:16;98953.03;;;28.74;33.13
69796;BME280;57073;45.650;9.612;2023-05-23T08:54:17;98953.38;;;28.91;33.08
69796;BME280;57073;45.650;9.612;2023-05-23T08:59:18;98954.22;;;28.96;31.97
69796;BME280;57073;45.650;9.612;2023-05-23T09:04:19;98954.09;;;28.88;33.35
69796;BME280;57073;45.650;9.612;2023-05-23T09:09:19;98955.34;;;28.91;32.56
69796;BME280;57073;45.650;9.612;2023-05-23T09:14:20;98962.66;;;28.80;33.93
69796;BME280;57073;45.650;9.612;2023-05-23T09:19:21;98953.75;;;28.70;33.38
69796;BME280;57073;45.650;9.612;2023-05-23T09:24:21;98956.75;;;28.42;34.19
69796;BME280;57073;45.650;9.612;2023-05-23T09:29:22;98950.94;;;28.47;34.70
69796;BME280;57073;45.650;9.612;2023-05-23T09:34:23;98951.09;;;28.55;34.18
69796;BME280;57073;45.650;9.612;2023-05-23T09:39:23;98945.38;;;28.47;33.92
69796;BME280;57073;45.650;9.612;2023-05-23T09:44:23;98945.66;;;28.23;33.53
69796;BME280;57073;45.650;9.612;2023-05-23T09:49:25;98937.50;;;28.10;34.22
69796;BME280;57073;45.650;9.612;2023-05-23T09:54:25;98936.19;;;28.04;34.06
69796;BME280;57073;45.650;9.612;2023-05-23T09:59:30;98931.59;;;28.12;34.79
69796;BME280;57073;45.650;9.612;2023-05-23T10:04:33;98937.19;;;27.96;34.29
69796;BME280;57073;45.650;9.612;2023-05-23T10:09:35;98937.97;;;27.96;34.32
69796;BME280;57073;45.650;9.612;2023-05-23T10:14:40;98932.81;;;27.95;34.51
69796;BME280;57073;45.650;9.612;2023-05-23T10:19:56;98924.56;;;27.63;33.78
69796;BME280;57073;45.650;9.612;2023-05-23T10:24:57;98921.50;;;28.04;34.46
69796;BME280;57073;45.650;9.612;2023-05-23T10:29:59;98911.16;;;28.01;33.80
69796;BME280;57073;45.650;9.612;2023-05-23T10:40:38;98915.09;;;27.84;32.22
69796;BME280;57073;45.650;9.612;2023-05-23T10:45:42;98902.16;;;27.88;33.33
69796;BME280;57073;45.650;9.612;2023-05-23T10:50:42;98909.25;;;27.69;33.46
69796;BME280;57073;45.650;9.612;2023-05-23T10:55:47;98900.41;;;27.64;33.10
69796;BME280;57073;45.650;9.612;2023-05-23T11:00:55;98902.25;;;27.40;33.55
69796;BME280;57073;45.650;9.612;2023-05-23T11:05:56;98889.25;;;27.41;33.36
69796;BME280;57073;45.650;9.612;2023-05-23T11:11:01;98888.78;;;27.38;32.98
69796;BME280;57073;45.650;9.612;2023-05-23T11:16:22;98881.56;;;27.34;33.23
69796;BME280;57073;45.650;9.612;2023-05-23T11:21:23;98877.97;;;27.01;31.30
69796;BME280;57073;45.650;9.612;2023-05-23T11:26:32;98893.63;;;27.10;32.09
69796;BME280;57073;45.650;9.612;2023-05-23T11:31:36;98887.69;;;27.11;33.23
69796;BME280;57073;45.650;9.612;2023-05-23T11:36:37;98886.53;;;27.28;35.25
69796;BME280;57073;45.650;9.612;2023-05-23T11:41:37;98880.47;;;27.23;34.87
69796;BME280;57073;45.650;9.612;2023-05-23T11:46:38;98881.72;;;27.25;34.45
69796;BME280;57073;45.650;9.612;2023-05-23T11:51:39;98867.19;;;27.12;34.10
69796;BME280;57073;45.650;9.612;2023-05-23T11:56:40;98869.50;;;27.26;34.27
69796;BME280;57073;45.650;9.612;2023-05-23T12:01:40;98868.81;;;27.13;34.72
69796;BME280;57073;45.650;9.612;2023-05-23T12:06:41;98861.53;;;27.25;34.14
69796;BME280;57073;45.650;9.612;2023-05-23T12:11:43;98860.53;;;27.33;34.25
69796;BME280;57073;45.650;9.612;2023-05-23T12:16:44;98856.19;;;27.48;34.29
69796;BME280;57073;45.650;9.612;2023-05-23T12:21:48;98852.78;;;27.38;34.00
69796;BME280;57073;45.650;9.612;2023-05-23T12:26:53;98846.69;;;27.49;33.66
69796;BME280;57073;45.650;9.612;2023-05-23T12:31:54;98831.34;;;27.51;33.34
69796;BME280;57073;45.650;9.612;2023-05-23T12:36:58;98833.09;;;27.60;33.65
69796;BME280;57073;45.650;9.612;2023-05-23T12:42:08;98834.19;;;27.55;33.32
69796;BME280;57073;45.650;9.612;2023-05-23T12:47:09;98829.38;;;27.52;33.07
69796;BME280;57073;45.650;9.612;2023-05-23T12:52:09;98837.44;;;27.41;32.26
69796;BME280;57073;45.650;9.612;2023-05-23T12:57:10;98837.78;;;27.39;32.28
69796;BME280;57073;45.650;9.612;2023-05-23T13:02:10;98833.78;;;27.37;32.01
69796;BME280;57073;45.650;9.612;2023-05-23T13:07:11;98834.03;;;27.48;32.60
69796;BME280;57073;45.650;9.612;2023-05-23T13:12:11;98820.47;;;27.43;31.33
69796;BME280;57073;45.650;9.612;2023-05-23T13:17:12;98821.78;;;27.49;32.06
69796;BME280;57073;45.650;9.612;2023-05-23T13:22:13;98810.22;;;27.63;31.26
69796;BME280;57073;45.650;9.612;2023-05-23T13:27:13;98817.97;;;27.22;31.26
69796;BME280;57073;45.650;9.612;2023-05-23T13:32:14;98800.66;;;27.41;31.56
69796;BME280;57073;45.650;9.612;2023-05-23T13:37:14;98814.19;;;27.46;32.07
69796;BME280;57073;45.650;9.612;2023-05-23T13:42:15;98808.94;;;27.41;31.23
69796;BME280;57073;45.650;9.612;2023-05-23T13:47:15;98814.16;;;27.10;30.64
69796;BME280;57073;45.650;9.612;2023-05-23T13:52:16;98803.72;;;27.04;30.67
69796;BME280;57073;45.650;9.612;2023-05-23T13:57:16;98801.19;;;27.14;30.85
69796;BME280;57073;45.650;9.612;2023-05-23T14:02:16;98790.38;;;27.25;30.72
69796;BME280;57073;45.650;9.612;2023-05-23T14:07:17;98796.69;;;27.06;30.96
69796;BME280;57073;45.650;9.612;2023-05-23T14:12:17;98790.31;;;27.06;31.08
69796;BME280;57073;45.650;9.612;2023-05-23T14:17:18;98790.16;;;26.67;31.05
69796;BME280;57073;45.650;9.612;2023-05-23T14:22:18;98784.38;;;26.56;30.13
69796;BME280;57073;45.650;9.612;2023-05-23T14:27:19;98771.53;;;26.32;30.91
69796;BME280;57073;45.650;9.612;2023-05-23T14:32:19;98779.03;;;26.47;31.37
69796;BME280;57073;45.650;9.612;2023-05-23T14:37:20;98787.03;;;26.36;30.85
69796;BME280;57073;45.650;9.612;2023-05-23T14:42:20;98788.88;;;26.16;31.02
69796;BME280;57073;45.650;9.612;2023-05-23T14:47:20;98779.00;;;26.31;30.99
69796;BME280;57073;45.650;9.612;2023-05-23T14:52:21;98777.31;;;26.27;31.77
69796;BME280;57073;45.650;9.612;2023-05-23T14:57:21;98774.75;;;26.34;32.15
69796;BME280;57073;45.650;9.612;2023-05-23T15:02:22;98777.56;;;26.53;31.37
69796;BME280;57073;45.650;9.612;2023-05-23T15:07:22;98777.31;;;26.58;31.80
69796;BME280;57073;45.650;9.612;2023-05-23T15:12:22;98777.06;;;26.32;32.68
69796;BME280;57073;45.650;9.612;2023-05-23T15:17:23;98775.94;;;26.20;33.95
69796;BME280;57073;45.650;9.612;2023-05-23T15:22:24;98765.81;;;26.24;34.16
69796;BME280;57073;45.650;9.612;2023-05-23T15:27:24;98758.78;;;25.99;34.00
69796;BME280;57073;45.650;9.612;2023-05-23T15:32:24;98761.72;;;25.90;34.29
69796;BME280;57073;45.650;9.612;2023-05-23T15:37:25;98754.03;;;25.83;34.88
69796;BME280;57073;45.650;9.612;2023-05-23T15:42:25;98763.00;;;25.80;34.89
69796;BME280;57073;45.650;9.612;2023-05-23T15:47:26;98766.00;;;25.75;34.76
69796;BME280;57073;45.650;9.612;2023-05-23T15:52:26;98766.44;;;25.61;35.16
69796;BME280;57073;45.650;9.612;2023-05-23T15:57:27;98760.66;;;25.66;35.42
69796;BME280;57073;45.650;9.612;2023-05-23T16:02:27;98762.22;;;25.80;35.11
69796;BME280;57073;45.650;9.612;2023-05-23T16:07:28;98766.22;;;25.82;35.42
69796;BME280;57073;45.650;9.612;2023-05-23T16:12:28;98754.13;;;25.87;35.93
69796;BME280;57073;45.650;9.612;2023-05-23T16:17:30;98752.25;;;25.91;35.14
69796;BME280;57073;45.650;9.612;2023-05-23T16:22:30;98749.19;;;26.09;34.91
69796;BME280;57073;45.650;9.612;2023-05-23T16:27:31;98758.59;;;26.20;35.19
69796;BME280;57073;45.650;9.612;2023-05-23T16:32:32;98752.34;;;26.23;34.60
69796;BME280;57073;45.650;9.612;2023-05-23T16:37:32;98752.88;;;26.29;34.33
69796;BME280;57073;45.650;9.612;2023-05-23T16:42:33;98749.28;;;26.12;34.20
69796;BME280;57073;45.650;9.612;2023-05-23T16:47:33;98755.28;;;26.14;34.56
69796;BME280;57073;45.650;9.612;2023-05-23T16:52:34;98755.84;;;26.08;35.81
69796;BME280;57073;45.650;9.612;2023-05-23T16:57:34;98753.41;;;26.18;35.46
69796;BME280;57073;45.650;9.612;2023-05-23T17:02:35;98746.28;;;26.17;36.17
69796;BME280;57073;45.650;9.612;2023-05-23T17:07:35;98763.75;;;26.21;36.06
69796;BME280;57073;45.650;9.612;2023-05-23T17:12:36;98763.41;;;25.95;36.15
69796;BME280;57073;45.650;9.612;2023-05-23T17:17:36;98768.81;;;25.91;36.30
69796;BME280;57073;45.650;9.612;2023-05-23T17:22:37;98767.63;;;25.76;36.75
69796;BME280;57073;45.650;9.612;2023-05-23T17:27:37;98777.13;;;25.51;36.82
69796;BME280;57073;45.650;9.612;2023-05-23T17:32:37;98772.94;;;25.28;37.30
69796;BME280;57073;45.650;9.612;2023-05-23T17:37:38;98773.19;;;25.23;37.00
69796;BME280;57073;45.650;9.612;2023-05-23T17:42:42;98770.31;;;25.07;37.21
69796;BME280;57073;45.650;9.612;2023-05-23T17:47:42;98770.78;;;24.97;37.43
69796;BME280;57073;45.650;9.612;2023-05-23T17:52:43;98770.56;;;24.90;36.59
69796;BME280;57073;45.650;9.612;2023-05-23T17:57:43;98766.06;;;24.85;36.33
69796;BME280;57073;45.650;9.612;2023-05-23T18:02:44;98766.84;;;24.86;36.55
69796;BME280;57073;45.650;9.612;2023-05-23T18:07:45;98765.16;;;24.81;37.01
69796;BME280;57073;45.650;9.612;2023-05-23T18:12:46;98762.50;;;24.72;37.60
69796;BME280;57073;45.650;9.612;2023-05-23T18:17:47;98761.34;;;24.61;38.18
69796;BME280;57073;45.650;9.612;2023-05-23T18:22:51;98766.03;;;24.36;39.47
69796;BME280;57073;45.650;9.612;2023-05-23T18:27:58;98766.41;;;24.47;39.01
69796;BME280;57073;45.650;9.612;2023-05-23T18:32:58;98769.94;;;24.35;39.79
69796;BME280;57073;45.650;9.612;2023-05-23T18:37:59;98769.81;;;24.31;39.96
69796;BME280;57073;45.650;9.612;2023-05-23T18:42:59;98782.59;;;24.15;40.59
69796;BME280;57073;45.650;9.612;2023-05-23T18:48:00;98783.53;;;23.86;41.32
69796;BME280;57073;45.650;9.612;2023-05-23T18:53:00;98787.84;;;23.74;41.31
69796;BME280;57073;45.650;9.612;2023-05-23T18:58:01;98797.69;;;23.54;41.47
69796;BME280;57073;45.650;9.612;2023-05-23T19:03:01;98798.47;;;23.34;42.49
69796;BME280;57073;45.650;9.612;2023-05-23T19:08:01;98812.16;;;23.22;42.62
69796;BME280;57073;45.650;9.612;2023-05-23T19:13:02;98809.78;;;23.11;42.95
69796;BME280;57073;45.650;9.612;2023-05-23T19:18:03;98821.16;;;23.01;44.19
69796;BME280;57073;45.650;9.612;2023-05-23T19:23:03;98828.84;;;22.78;45.05
69796;BME280;57073;45.650;9.612;2023-05-23T19:28:04;98835.31;;;22.82;45.48
69796;BME280;57073;45.650;9.612;2023-05-23T19:33:05;98844.41;;;22.65;45.36
69796;BME280;57073;45.650;9.612;2023-05-23T19:38:06;98853.16;;;22.58;45.81
69796;BME280;57073;45.650;9.612;2023-05-23T19:43:07;98867.56;;;22.38;45.67
69796;BME280;57073;45.650;9.612;2023-05-23T19:48:08;98871.81;;;22.35;45.21
69796;BME280;57073;45.650;9.612;2023-05-23T19:53:09;98873.56;;;21.96;46.89
69796;BME280;57073;45.650;9.612;2023-05-23T19:58:09;98875.50;;;21.87;45.98
69796;BME280;57073;45.650;9.612;2023-05-23T20:03:10;98883.09;;;21.90;45.88
69796;BME280;57073;45.650;9.612;2023-05-23T20:08:11;98885.66;;;21.69;45.54
69796;BME280;57073;45.650;9.612;2023-05-23T20:13:11;98898.75;;;21.81;44.98
69796;BME280;57073;45.650;9.612;2023-05-23T20:18:12;98894.06;;;21.64;43.61
69796;BME280;57073;45.650;9.612;2023-05-23T20:23:12;98902.06;;;21.52;44.01
69796;BME280;57073;45.650;9.612;2023-05-23T20:28:13;98899.03;;;21.53;44.07
69796;BME280;57073;45.650;9.612;2023-05-23T20:33:14;98911.84;;;21.26;45.49
69796;BME280;57073;45.650;9.612;2023-05-23T20:38:14;98906.69;;;21.34;44.23
69796;BME280;57073;45.650;9.612;2023-05-23T20:43:17;98916.66;;;21.21;45.36
69796;BME280;57073;45.650;9.612;2023-05-23T20:48:18;98917.00;;;20.88;46.14
69796;BME280;57073;45.650;9.612;2023-05-23T20:53:19;98917.53;;;20.76;46.74
69796;BME280;57073;45.650;9.612;2023-05-23T20:58:19;98916.94;;;20.57;47.02
69796;BME280;57073;45.650;9.612;2023-05-23T21:03:20;98911.34;;;20.62;46.52
69796;BME280;57073;45.650;9.612;2023-05-23T21:08:21;98912.97;;;20.63;46.88
69796;BME280;57073;45.650;9.612;2023-05-23T21:13:21;98907.91;;;20.56;46.76
69796;BME280;57073;45.650;9.612;2023-05-23T21:18:22;98911.38;;;20.70;46.03
69796;BME280;57073;45.650;9.612;2023-05-23T21:23:22;98918.88;;;20.56;45.85
69796;BME280;57073;45.650;9.612;2023-05-23T21:28:22;98914.47;;;20.46;46.20
69796;BME280;57073;45.650;9.612;2023-05-23T21:33:23;98929.19;;;20.37;45.82
69796;BME280;57073;45.650;9.612;2023-05-23T21:38:23;98922.19;;;20.44;45.65
69796;BME280;57073;45.650;9.612;2023-05-23T21:43:24;98920.75;;;20.24;45.19
69796;BME280;57073;45.650;9.612;2023-05-23T21:48:24;98933.63;;;20.24;45.04
69796;BME280;57073;45.650;9.612;2023-05-23T21:53:24;98941.69;;;20.06;45.23
69796;BME280;57073;45.650;9.612;2023-05-23T21:58:25;98935.41;;;20.06;45.48
69796;BME280;57073;45.650;9.612;2023-05-23T22:03:25;98928.72;;;20.12;44.57
69796;BME280;57073;45.650;9.612;2023-05-23T22:08:25;98931.94;;;20.00;44.39
69796;BME280;57073;45.650;9.612;2023-05-23T22:13:30;98940.66;;;20.16;44.34
69796;BME280;57073;45.650;9.612;2023-05-23T22:18:31;98944.88;;;20.22;44.12
69796;BME280;57073;45.650;9.612;2023-05-23T22:23:34;98940.84;;;20.20;45.05
69796;BME280;57073;45.650;9.612;2023-05-23T22:28:36;98944.28;;;20.11;45.26
69796;BME280;57073;45.650;9.612;2023-05-23T22:33:36;98943.66;;;20.28;44.43
69796;BME280;57073;45.650;9.612;2023-05-23T22:38:37;98940.25;;;20.09;44.08
69796;BME280;57073;45.650;9.612;2023-05-23T22:43:37;98946.97;;;19.89;43.09
69796;BME280;57073;45.650;9.612;2023-05-23T22:48:38;98939.13;;;19.73;43.33
69796;BME280;57073;45.650;9.612;2023-05-23T22:53:38;98941.75;;;19.65;43.71
69796;BME280;57073;45.650;9.612;2023-05-23T22:58:40;98937.13;;;19.37;43.39
69796;BME280;57073;45.650;9.612;2023-05-23T23:03:40;98941.25;;;19.35;43.28
69796;BME280;57073;45.650;9.612;2023-05-23T23:08:40;98941.75;;;19.37;43.54
69796;BME280;57073;45.650;9.612;2023-05-23T23:13:41;98935.97;;;19.38;43.26
69796;BME280;57073;45.650;9.612;2023-05-23T23:18:41;98925.97;;;19.34;43.05
69796;BME280;57073;45.650;9.612;2023-05-23T23:23:41;98925.34;;;19.23;42.96
69796;BME280;57073;45.650;9.612;2023-05-23T23:28:42;98922.91;;;19.21;43.34
69796;BME280;57073;45.650;9.612;2023-05-23T23:33:42;98918.97;;;19.28;42.77
69796;BME280;57073;45.650;9.612;2023-05-23T23:38:42;98920.25;;;19.02;42.95
69796;BME280;57073;45.650;9.612;2023-05-23T23:43:43;98923.50;;;19.05;43.36
69796;BME280;57073;45.650;9.612;2023-05-23T23:48:43;98912.44;;;19.10;43.47
69796;BME280;57073;45.650;9.612;2023-05-23T23:53:43;98922.28;;;19.11;43.25
69796;BME280;57073;45.650;9.612;2023-05-23T23:58:44;98920.25;;;19.02;44.26
